Time;durP1;ratioP1;P1;durP2;ratioP2;P2;SDS_P1;SDS_P2;PMS_P1;PMS_P2;Temp;Humidity;BMP_temperature;BMP_pressure;BME280_temperature;BME280_humidity;BME280_pressure;Samples;Min_cycle;Max_cycle;Signal;HPM_P1;HPM_P2
2021/05/14 00:00:41;;;;;;;24.33;19.37;;;11.30;99.90;;;;;;3595575;39;20602;-74
2021/05/14 00:03:06;;;;;;;24.00;20.77;;;11.30;99.90;;;;;;3603166;39;20526;-74
2021/05/14 00:05:35;;;;;;;21.13;18.60;;;11.30;99.90;;;;;;3603194;39;20252;-74
2021/05/14 00:08:04;;;;;;;24.10;20.40;;;11.30;99.90;;;;;;3594449;39;20597;-74
2021/05/14 00:10:31;;;;;;;23.47;20.70;;;11.20;99.90;;;;;;3605003;39;20406;-74
2021/05/14 00:12:57;;;;;;;27.57;20.90;;;11.20;99.90;;;;;;3584653;39;20480;-74
2021/05/14 00:15:23;;;;;;;27.70;22.13;;;11.20;99.90;;;;;;3592020;39;20402;-74
2021/05/14 00:17:50;;;;;;;30.93;23.17;;;11.20;99.90;;;;;;3593490;39;20442;-74
2021/05/14 00:20:16;;;;;;;33.90;24.03;;;11.20;99.90;;;;;;3592482;39;20406;-74
2021/05/14 00:22:42;;;;;;;33.60;25.10;;;11.20;99.90;;;;;;3603719;39;20418;-74
2021/05/14 00:25:09;;;;;;;30.03;23.43;;;11.20;99.90;;;;;;3604158;39;20430;-74
2021/05/14 00:27:35;;;;;;;28.63;22.00;;;11.20;99.90;;;;;;3600660;39;20267;-74
2021/05/14 00:30:06;;;;;;;33.83;22.73;;;11.20;99.90;;;;;;3602548;39;21064;-74
2021/05/14 00:32:32;;;;;;;33.43;24.53;;;11.20;99.90;;;;;;3586479;39;20741;-74
2021/05/14 00:34:58;;;;;;;31.47;22.13;;;11.20;99.90;;;;;;3594571;39;20413;-74
2021/05/14 00:37:24;;;;;;;31.13;25.23;;;11.10;99.90;;;;;;3582690;39;20397;-74
2021/05/14 00:39:49;;;;;;;25.40;20.97;;;11.10;99.90;;;;;;3600818;39;20317;-74
2021/05/14 00:42:15;;;;;;;26.53;23.00;;;11.10;99.90;;;;;;3598791;39;20223;-74
2021/05/14 00:44:48;;;;;;;24.83;21.53;;;11.10;99.90;;;;;;3593116;39;20212;-74
2021/05/14 00:47:18;;;;;;;32.00;22.43;;;11.10;99.90;;;;;;3592601;39;20585;-74
2021/05/14 00:49:44;;;;;;;30.67;22.90;;;11.10;99.90;;;;;;3592208;39;20476;-74
2021/05/14 00:52:12;;;;;;;32.93;23.73;;;11.10;99.90;;;;;;3594213;39;20470;-73
2021/05/14 00:54:39;;;;;;;31.30;23.70;;;11.20;99.90;;;;;;3601314;39;20818;-74
2021/05/14 00:57:09;;;;;;;27.97;24.70;;;11.10;99.90;;;;;;3594629;39;20416;-74
2021/05/14 00:59:35;;;;;;;35.73;25.93;;;11.10;99.90;;;;;;3602121;39;20441;-73
2021/05/14 01:02:01;;;;;;;34.67;25.60;;;11.10;99.90;;;;;;3604156;39;20458;-74
2021/05/14 01:04:27;;;;;;;30.47;24.03;;;11.10;99.90;;;;;;3602259;39;20406;-74
2021/05/14 01:06:53;;;;;;;32.53;24.50;;;11.10;99.90;;;;;;3601208;39;21030;-74
2021/05/14 01:09:19;;;;;;;32.40;23.63;;;11.10;99.90;;;;;;3592199;39;20315;-74
2021/05/14 01:11:45;;;;;;;31.73;23.90;;;11.20;99.90;;;;;;3602198;39;20613;-73
2021/05/14 01:14:11;;;;;;;33.80;26.77;;;11.10;99.90;;;;;;3601920;39;20527;-73
2021/05/14 01:16:37;;;;;;;31.73;24.53;;;11.10;99.90;;;;;;3588659;39;20246;-74
2021/05/14 01:19:03;;;;;;;33.47;25.00;;;11.00;99.90;;;;;;3591440;39;20659;-74
2021/05/14 01:21:29;;;;;;;34.37;24.10;;;11.00;99.90;;;;;;3593462;39;21065;-74
2021/05/14 01:23:56;;;;;;;30.13;23.47;;;11.00;99.90;;;;;;3592959;39;20796;-74
2021/05/14 01:26:23;;;;;;;30.90;24.07;;;10.90;99.90;;;;;;3593804;39;20399;-74
2021/05/14 01:28:49;;;;;;;28.40;23.30;;;10.90;99.90;;;;;;3593882;39;20414;-74
2021/05/14 01:31:15;;;;;;;31.93;25.13;;;10.90;99.90;;;;;;3586232;39;20527;-74
2021/05/14 01:33:41;;;;;;;31.03;24.63;;;10.90;99.90;;;;;;3590686;39;20235;-74
2021/05/14 01:36:08;;;;;;;32.13;23.80;;;10.90;99.90;;;;;;3595482;39;20649;-74
2021/05/14 01:38:34;;;;;;;30.80;24.73;;;10.90;99.90;;;;;;3592267;39;20384;-74
2021/05/14 01:41:01;;;;;;;35.60;24.17;;;10.90;99.90;;;;;;3591190;39;20429;-74
2021/05/14 01:43:27;;;;;;;37.70;25.63;;;10.90;99.90;;;;;;3601191;39;20394;-74
2021/05/14 01:45:53;;;;;;;33.53;24.93;;;10.90;99.90;;;;;;3602944;39;20830;-74
2021/05/14 01:48:19;;;;;;;32.03;25.03;;;10.90;99.90;;;;;;3594431;39;20771;-74
2021/05/14 01:50:45;;;;;;;29.23;25.10;;;10.90;99.90;;;;;;3594026;39;20535;-74
2021/05/14 01:53:11;;;;;;;31.10;23.70;;;10.90;99.90;;;;;;3592600;39;20705;-74
2021/05/14 01:55:38;;;;;;;31.07;24.27;;;10.90;99.90;;;;;;3601101;39;20407;-74
2021/05/14 01:58:04;;;;;;;27.93;22.43;;;10.90;99.90;;;;;;3577366;39;20247;-74
2021/05/14 02:00:30;;;;;;;31.87;23.43;;;10.90;99.90;;;;;;3595164;39;22164;-74
2021/05/14 02:02:56;;;;;;;34.40;24.10;;;10.90;99.90;;;;;;3583154;39;21031;-74
2021/05/14 02:05:22;;;;;;;26.83;21.77;;;10.90;99.90;;;;;;3605383;39;20431;-74
2021/05/14 02:07:47;;;;;;;29.37;22.20;;;10.90;99.90;;;;;;3591250;39;20239;-74
2021/05/14 02:10:13;;;;;;;30.17;24.17;;;10.90;99.90;;;;;;3592337;39;20310;-74
2021/05/14 02:12:39;;;;;;;30.80;22.90;;;10.90;99.90;;;;;;3590533;39;20260;-74
2021/05/14 02:15:07;;;;;;;28.33;23.07;;;10.90;99.90;;;;;;3602974;39;20463;-74
2021/05/14 02:17:32;;;;;;;27.30;21.70;;;10.90;99.90;;;;;;3591951;39;20248;-74
2021/05/14 02:19:58;;;;;;;27.80;22.70;;;10.90;99.90;;;;;;3602662;39;20472;-74
2021/05/14 02:22:25;;;;;;;28.63;22.50;;;10.80;99.90;;;;;;3601825;39;20230;-74
2021/05/14 02:24:50;;;;;;;32.00;24.17;;;10.80;99.90;;;;;;3593916;39;20228;-74
2021/05/14 02:27:20;;;;;;;30.67;23.57;;;10.80;99.90;;;;;;3603448;39;20422;-74
2021/05/14 02:29:46;;;;;;;30.17;23.10;;;10.80;99.90;;;;;;3592675;39;20227;-74
2021/05/14 02:32:13;;;;;;;35.97;24.57;;;10.70;99.90;;;;;;3592965;39;20404;-74
2021/05/14 02:34:40;;;;;;;30.67;23.80;;;10.70;99.90;;;;;;3595815;39;20393;-74
2021/05/14 02:37:06;;;;;;;30.90;24.77;;;10.70;99.90;;;;;;3594778;39;20820;-74
2021/05/14 02:39:31;;;;;;;30.77;23.10;;;10.70;99.90;;;;;;3592004;39;20434;-74
2021/05/14 02:41:58;;;;;;;34.50;24.37;;;10.70;99.90;;;;;;3576873;39;20386;-74
2021/05/14 02:44:23;;;;;;;31.10;24.10;;;10.60;99.90;;;;;;3592963;39;20227;-74
2021/05/14 02:46:49;;;;;;;37.53;25.67;;;10.60;99.90;;;;;;3603147;39;20697;-74
2021/05/14 02:49:15;;;;;;;30.07;23.60;;;10.60;99.90;;;;;;3602181;39;20298;-75
2021/05/14 02:51:41;;;;;;;30.20;22.40;;;10.60;99.90;;;;;;3583251;39;20255;-74
2021/05/14 02:54:06;;;;;;;29.97;22.80;;;10.50;99.90;;;;;;3592363;39;20232;-74
2021/05/14 02:56:33;;;;;;;30.03;21.20;;;10.50;99.90;;;;;;3602411;39;20333;-74
2021/05/14 02:58:59;;;;;;;31.63;22.33;;;10.60;99.90;;;;;;3592577;39;20653;-74
2021/05/14 03:01:25;;;;;;;28.33;22.30;;;10.60;99.90;;;;;;3591711;39;20380;-74
2021/05/14 03:03:51;;;;;;;32.67;22.80;;;10.50;99.90;;;;;;3583747;39;20465;-74
2021/05/14 03:06:17;;;;;;;31.13;21.83;;;10.50;99.90;;;;;;3592896;39;20447;-74
2021/05/14 03:08:43;;;;;;;24.43;20.80;;;10.50;99.90;;;;;;3601652;39;20639;-74
2021/05/14 03:11:09;;;;;;;34.03;20.63;;;10.50;99.90;;;;;;3592541;39;20395;-74
2021/05/14 03:13:35;;;;;;;24.13;19.60;;;10.50;99.90;;;;;;3584039;39;20421;-74
2021/05/14 03:16:01;;;;;;;28.33;22.03;;;10.50;99.90;;;;;;3601368;39;20552;-74
2021/05/14 03:18:26;;;;;;;32.90;23.37;;;10.60;99.90;;;;;;3591236;39;20232;-75
2021/05/14 03:20:54;;;;;;;25.63;21.37;;;10.60;99.90;;;;;;3602428;39;20399;-73
2021/05/14 03:23:20;;;;;;;31.40;23.00;;;10.60;99.90;;;;;;3593027;39;20656;-74
2021/05/14 03:25:46;;;;;;;30.77;23.30;;;10.60;99.90;;;;;;3601105;39;20407;-73
2021/05/14 03:28:12;;;;;;;30.63;21.23;;;10.60;99.90;;;;;;3601230;39;20530;-73
2021/05/14 03:30:38;;;;;;;29.10;22.37;;;10.50;99.90;;;;;;3602570;39;20216;-73
2021/05/14 03:33:03;;;;;;;31.03;22.33;;;10.50;99.90;;;;;;3592246;39;20223;-73
2021/05/14 03:35:29;;;;;;;30.20;21.77;;;10.40;99.90;;;;;;3601581;39;20619;-74
2021/05/14 03:37:55;;;;;;;31.23;22.53;;;10.50;99.90;;;;;;3601042;39;20587;-74
2021/05/14 03:40:32;;;;;;;35.50;24.43;;;10.50;99.90;;;;;;3599353;39;20511;-73
2021/05/14 03:42:59;;;;;;;33.33;22.47;;;10.50;99.90;;;;;;3592361;39;20243;-73
2021/05/14 03:45:25;;;;;;;32.93;22.80;;;10.50;99.90;;;;;;3603906;39;20488;-73
2021/05/14 03:47:53;;;;;;;38.97;24.07;;;10.50;99.90;;;;;;3577709;39;20793;-73
2021/05/14 03:50:18;;;;;;;31.20;22.20;;;10.50;99.90;;;;;;3601431;39;20243;-73
2021/05/14 03:52:44;;;;;;;29.73;22.57;;;10.50;99.90;;;;;;3594607;39;20460;-73
2021/05/14 03:55:11;;;;;;;32.90;21.97;;;10.40;99.90;;;;;;3582354;39;20326;-74
2021/05/14 03:57:37;;;;;;;29.33;23.00;;;10.30;99.90;;;;;;3602054;39;20418;-73
2021/05/14 04:00:05;;;;;;;29.83;22.97;;;10.30;99.90;;;;;;3602644;39;21109;-73
2021/05/14 04:02:30;;;;;;;30.33;22.07;;;10.30;99.90;;;;;;3591496;39;20270;-73
2021/05/14 04:04:57;;;;;;;32.60;22.33;;;10.30;99.90;;;;;;3602161;39;20699;-73
2021/05/14 04:07:23;;;;;;;30.00;21.43;;;10.30;99.90;;;;;;3603027;39;20251;-73
2021/05/14 04:10:00;;;;;;;33.63;22.57;;;10.20;99.90;;;;;;3594676;39;20916;-73
2021/05/14 04:15:11;;;;;;;33.27;22.50;;;10.20;99.90;;;;;;3591642;39;20530;-74
2021/05/14 04:17:37;;;;;;;32.10;22.27;;;10.30;99.90;;;;;;3596408;39;20415;-73
2021/05/14 04:20:05;;;;;;;39.20;23.70;;;10.30;99.90;;;;;;3602234;39;20395;-73
2021/05/14 04:22:31;;;;;;;35.30;23.27;;;10.30;99.90;;;;;;3593225;39;20484;-74
2021/05/14 04:24:57;;;;;;;36.20;23.13;;;10.40;99.90;;;;;;3591807;39;20405;-74
2021/05/14 04:27:23;;;;;;;37.57;22.50;;;10.40;99.90;;;;;;3585728;39;20694;-73
2021/05/14 04:29:49;;;;;;;31.30;22.03;;;10.40;99.90;;;;;;3591619;39;21008;-73
2021/05/14 04:32:15;;;;;;;32.57;24.83;;;10.50;99.90;;;;;;3584461;39;20407;-73
2021/05/14 04:34:41;;;;;;;33.33;23.30;;;10.50;99.90;;;;;;3601585;39;20435;-74
2021/05/14 04:37:08;;;;;;;31.03;22.13;;;10.50;99.90;;;;;;3600730;39;20224;-73
2021/05/14 04:39:34;;;;;;;30.53;21.37;;;10.50;99.90;;;;;;3603009;39;20390;-73
2021/05/14 04:41:59;;;;;;;31.17;23.03;;;10.60;99.90;;;;;;3598366;39;20409;-74
2021/05/14 04:44:25;;;;;;;34.10;21.70;;;10.60;99.90;;;;;;3593712;39;20721;-74
2021/05/14 04:46:53;;;;;;;30.60;21.37;;;10.60;99.90;;;;;;3603568;39;20340;-74
2021/05/14 04:49:19;;;;;;;31.30;21.77;;;10.70;99.90;;;;;;3585413;39;22587;-73
2021/05/14 04:51:45;;;;;;;33.07;24.13;;;10.80;99.90;;;;;;3603089;39;20422;-74
2021/05/14 04:54:11;;;;;;;32.60;22.80;;;10.80;99.90;;;;;;3602549;39;20235;-74
2021/05/14 04:56:37;;;;;;;34.40;22.37;;;10.90;99.90;;;;;;3592575;39;20414;-74
2021/05/14 04:59:03;;;;;;;31.27;22.90;;;10.90;99.90;;;;;;3604654;39;20421;-74
2021/05/14 05:01:29;;;;;;;33.43;23.43;;;11.00;99.90;;;;;;3594398;39;20407;-74
2021/05/14 05:03:57;;;;;;;33.20;21.57;;;11.10;99.90;;;;;;3593815;39;20864;-74
2021/05/14 05:06:23;;;;;;;33.60;21.03;;;11.10;99.90;;;;;;3594068;39;20283;-74
2021/05/14 05:08:50;;;;;;;29.87;22.53;;;11.10;99.90;;;;;;3603629;39;20822;-74
2021/05/14 05:11:16;;;;;;;27.70;22.13;;;11.20;99.90;;;;;;3597746;39;20417;-74
2021/05/14 05:13:42;;;;;;;30.80;21.83;;;11.30;99.90;;;;;;3603541;39;20492;-74
2021/05/14 05:16:08;;;;;;;27.80;21.67;;;11.30;99.90;;;;;;3584014;39;20260;-74
2021/05/14 05:18:34;;;;;;;27.63;20.80;;;11.50;99.90;;;;;;3604050;39;20219;-74
2021/05/14 05:21:00;;;;;;;29.20;22.47;;;11.60;99.90;;;;;;3602799;39;20402;-74
2021/05/14 05:23:25;;;;;;;26.47;21.80;;;11.60;99.90;;;;;;3595225;39;20482;-75
2021/05/14 05:25:51;;;;;;;29.50;22.00;;;11.70;99.90;;;;;;3604570;39;20665;-75
2021/05/14 05:28:26;;;;;;;29.00;19.27;;;11.60;99.90;;;;;;3597955;39;20308;-73
2021/05/14 05:30:51;;;;;;;26.90;19.07;;;11.70;99.90;;;;;;3602114;39;20231;-73
2021/05/14 05:33:17;;;;;;;27.17;20.73;;;11.70;99.90;;;;;;3591055;39;20846;-72
2021/05/14 05:35:43;;;;;;;26.40;20.83;;;11.80;99.90;;;;;;3602281;39;20988;-72
2021/05/14 05:38:19;;;;;;;30.97;20.07;;;11.90;99.90;;;;;;3588084;39;20693;-73
2021/05/14 05:40:46;;;;;;;27.17;21.70;;;12.00;99.90;;;;;;3600913;39;20774;-72
2021/05/14 05:43:12;;;;;;;29.53;22.83;;;12.00;99.90;;;;;;3594656;39;20808;-72
2021/05/14 05:45:37;;;;;;;26.30;20.67;;;12.00;99.90;;;;;;3601846;39;20468;-73
2021/05/14 05:48:03;;;;;;;28.67;21.00;;;12.10;99.90;;;;;;3594302;39;20397;-73
2021/05/14 05:50:29;;;;;;;24.10;19.30;;;12.30;99.90;;;;;;3608324;39;20306;-75
2021/05/14 05:52:55;;;;;;;22.77;19.00;;;12.60;99.90;;;;;;3586556;39;20414;-72
2021/05/14 05:55:21;;;;;;;26.80;20.37;;;13.00;99.90;;;;;;3605112;39;20334;-73
2021/05/14 05:57:47;;;;;;;28.10;21.63;;;13.00;99.90;;;;;;3594319;39;20228;-72
2021/05/14 06:00:14;;;;;;;26.30;19.90;;;13.20;99.90;;;;;;3604000;39;20405;-72
2021/05/14 06:02:40;;;;;;;23.73;19.67;;;13.80;99.90;;;;;;3590655;39;20462;-72
2021/05/14 06:05:08;;;;;;;24.50;18.07;;;14.10;99.90;;;;;;3589427;39;20642;-73
2021/05/14 06:07:34;;;;;;;23.03;18.60;;;14.20;99.90;;;;;;3590228;39;20500;-73
2021/05/14 06:09:59;;;;;;;23.27;18.17;;;13.90;99.90;;;;;;3600446;39;20446;-73
2021/05/14 06:12:25;;;;;;;22.63;17.93;;;13.60;99.90;;;;;;3590745;39;20223;-73
2021/05/14 06:14:51;;;;;;;23.70;17.40;;;13.90;99.90;;;;;;3591834;39;20239;-73
2021/05/14 06:17:17;;;;;;;21.70;17.30;;;14.10;99.90;;;;;;3594669;39;20223;-73
2021/05/14 06:19:49;;;;;;;24.50;19.27;;;14.30;99.90;;;;;;3589345;39;20227;-73
2021/05/14 06:22:14;;;;;;;23.17;18.10;;;14.60;99.90;;;;;;3575355;39;20409;-73
2021/05/14 06:24:40;;;;;;;21.93;17.30;;;15.00;99.90;;;;;;3587334;39;20553;-73
2021/05/14 06:27:06;;;;;;;22.20;17.90;;;15.70;99.90;;;;;;3577176;39;20784;-73
2021/05/14 06:29:32;;;;;;;22.50;17.03;;;15.70;99.90;;;;;;3596808;39;20693;-73
2021/05/14 06:31:57;;;;;;;20.60;17.17;;;15.20;99.90;;;;;;3596691;39;20880;-73
2021/05/14 06:34:23;;;;;;;23.33;17.63;;;14.80;99.90;;;;;;3577551;39;20808;-73
2021/05/14 06:36:48;;;;;;;20.80;15.97;;;15.10;99.90;;;;;;3598973;39;20215;-73
2021/05/14 06:39:14;;;;;;;21.07;18.50;;;14.50;99.90;;;;;;3598281;39;20242;-72
2021/05/14 06:41:40;;;;;;;23.90;17.90;;;14.00;99.90;;;;;;3588873;39;20248;-72
2021/05/14 06:44:05;;;;;;;34.07;20.20;;;13.80;99.90;;;;;;3597840;39;20714;-73
2021/05/14 06:46:32;;;;;;;25.27;17.17;;;13.60;99.90;;;;;;3596849;39;20353;-73
2021/05/14 06:48:57;;;;;;;28.50;18.17;;;13.50;99.90;;;;;;3598184;39;20220;-74
2021/05/14 06:51:23;;;;;;;24.77;18.37;;;13.50;99.90;;;;;;3575385;39;20449;-73
2021/05/14 06:53:50;;;;;;;27.00;19.60;;;13.30;99.90;;;;;;3584871;39;20236;-73
2021/05/14 06:56:16;;;;;;;26.10;19.80;;;13.30;99.90;;;;;;3598943;39;20588;-72
2021/05/14 06:58:42;;;;;;;24.77;19.77;;;13.50;99.90;;;;;;3578770;39;20858;-72
2021/05/14 07:01:08;;;;;;;22.70;18.13;;;13.50;99.90;;;;;;3583527;39;20840;-73
2021/05/14 07:03:34;;;;;;;27.20;18.50;;;13.60;99.90;;;;;;3598224;39;20426;-74
2021/05/14 07:06:00;;;;;;;26.20;20.10;;;13.50;99.90;;;;;;3588555;39;20618;-74
2021/05/14 07:08:26;;;;;;;21.30;18.40;;;13.60;99.90;;;;;;3597527;39;20367;-74
2021/05/14 07:10:52;;;;;;;24.50;20.70;;;13.80;99.90;;;;;;3579575;39;20457;-74
2021/05/14 07:13:17;;;;;;;26.60;18.60;;;13.70;99.90;;;;;;3586526;39;20257;-73
2021/05/14 07:15:43;;;;;;;21.40;17.93;;;13.70;99.90;;;;;;3588994;39;20220;-73
2021/05/14 07:18:09;;;;;;;26.03;18.63;;;14.60;99.90;;;;;;3596546;39;20247;-73
2021/05/14 07:20:36;;;;;;;20.90;18.60;;;15.40;99.90;;;;;;3586833;39;20236;-73
2021/05/14 07:23:02;;;;;;;21.60;18.07;;;15.10;99.90;;;;;;3587522;39;20406;-74
2021/05/14 07:25:28;;;;;;;23.37;19.50;;;15.20;99.90;;;;;;3599535;39;20444;-75
2021/05/14 07:27:53;;;;;;;23.70;19.37;;;14.80;99.90;;;;;;3587325;39;20420;-74
2021/05/14 07:30:19;;;;;;;20.20;18.10;;;14.90;99.90;;;;;;3578244;39;20596;-74
2021/05/14 07:32:45;;;;;;;22.43;18.70;;;14.90;99.90;;;;;;3597494;39;20271;-74
2021/05/14 07:35:11;;;;;;;21.60;18.60;;;14.70;99.90;;;;;;3579565;39;20802;-73
2021/05/14 07:37:37;;;;;;;22.13;18.40;;;15.90;99.90;;;;;;3569414;39;20354;-73
2021/05/14 07:40:04;;;;;;;21.37;19.03;;;16.00;99.90;;;;;;3596923;39;20511;-73
2021/05/14 07:42:30;;;;;;;24.60;19.03;;;16.60;99.90;;;;;;3597138;39;20522;-73
2021/05/14 07:44:56;;;;;;;19.10;17.10;;;16.30;99.90;;;;;;3600456;39;20446;-73
2021/05/14 07:47:21;;;;;;;21.77;17.47;;;15.60;99.90;;;;;;3582512;39;20243;-73
2021/05/14 07:49:47;;;;;;;20.90;18.67;;;15.50;99.90;;;;;;3587852;39;20264;-73
2021/05/14 07:52:12;;;;;;;18.33;15.70;;;15.60;99.90;;;;;;3600040;39;20615;-73
2021/05/14 07:54:38;;;;;;;21.13;18.93;;;15.10;99.90;;;;;;3598866;39;20282;-74
2021/05/14 07:57:05;;;;;;;21.03;18.27;;;14.90;99.90;;;;;;3589352;39;20231;-74
2021/05/14 07:59:31;;;;;;;21.40;19.33;;;15.10;99.90;;;;;;3588967;39;20476;-73
2021/05/14 08:01:56;;;;;;;34.87;19.53;;;14.80;99.90;;;;;;3599781;39;20442;-74
2021/05/14 08:04:22;;;;;;;19.90;17.80;;;14.90;99.90;;;;;;3589327;39;20436;-74
2021/05/14 08:06:49;;;;;;;20.90;17.83;;;14.70;99.90;;;;;;3579040;39;20252;-74
2021/05/14 08:09:20;;;;;;;20.90;18.00;;;14.70;99.90;;;;;;3598793;39;20238;-74
2021/05/14 08:11:46;;;;;;;20.63;18.57;;;14.70;99.90;;;;;;3598300;39;20982;-74
2021/05/14 08:14:12;;;;;;;21.37;19.17;;;14.50;99.90;;;;;;3581213;39;20399;-74
2021/05/14 08:16:38;;;;;;;24.47;21.87;;;15.20;99.90;;;;;;3597853;39;20465;-74
2021/05/14 08:19:04;;;;;;;21.03;18.93;;;15.80;99.90;;;;;;3598740;39;20697;-73
2021/05/14 08:21:29;;;;;;;20.97;18.63;;;16.10;99.90;;;;;;3588084;39;20981;-73
2021/05/14 08:23:55;;;;;;;20.47;18.50;;;15.80;99.90;;;;;;3589407;39;20236;-74
2021/05/14 08:26:21;;;;;;;21.10;18.97;;;16.20;99.90;;;;;;3600665;39;20647;-74
2021/05/14 08:28:46;;;;;;;20.23;18.23;;;16.70;99.90;;;;;;3588571;39;20780;-73
2021/05/14 08:31:13;;;;;;;21.83;19.63;;;16.90;99.90;;;;;;3586338;39;20220;-73
2021/05/14 08:33:38;;;;;;;20.37;18.47;;;16.70;99.90;;;;;;3587928;39;20219;-73
2021/05/14 08:36:05;;;;;;;21.80;19.70;;;17.30;99.90;;;;;;3579314;39;20438;-73
2021/05/14 08:38:32;;;;;;;20.53;18.73;;;18.60;99.90;;;;;;3587266;39;20589;-73
2021/05/14 08:41:06;;;;;;;17.10;15.60;;;19.00;99.90;;;;;;3599083;39;20403;-73
2021/05/14 08:43:32;;;;;;;17.13;15.43;;;18.70;99.90;;;;;;3598982;39;20706;-74
2021/05/14 08:46:01;;;;;;;16.03;14.53;;;19.00;99.90;;;;;;3598006;39;20421;-74
2021/05/14 08:48:29;;;;;;;14.97;13.57;;;19.00;99.90;;;;;;3586366;39;20422;-74
2021/05/14 08:50:55;;;;;;;14.33;13.13;;;19.70;99.90;;;;;;3587211;39;20422;-74
2021/05/14 08:53:20;;;;;;;15.20;13.63;;;18.50;99.90;;;;;;3589825;39;20405;-74
2021/05/14 08:55:46;;;;;;;11.83;10.77;;;17.70;99.90;;;;;;3587775;39;20345;-74
2021/05/14 08:58:12;;;;;;;11.07;10.17;;;18.00;99.90;;;;;;3599421;39;20795;-73
2021/05/14 09:00:39;;;;;;;14.90;13.33;;;17.10;99.90;;;;;;3587466;39;20252;-73
2021/05/14 09:03:09;;;;;;;10.67;9.73;;;17.70;99.90;;;;;;3598926;39;20264;-73
2021/05/14 09:05:35;;;;;;;11.23;9.87;;;18.90;99.90;;;;;;3597473;39;20509;-73
2021/05/14 09:08:02;;;;;;;8.57;7.93;;;19.60;99.90;;;;;;3598864;39;20414;-73
2021/05/14 09:10:30;;;;;;;9.90;8.90;;;18.90;99.90;;;;;;3594886;39;21044;-73
2021/05/14 09:12:57;;;;;;;8.97;8.27;;;18.10;99.90;;;;;;3595887;39;20441;-73
2021/05/14 09:15:26;;;;;;;9.73;8.47;;;19.40;99.90;;;;;;3597198;39;20414;-73
2021/05/14 09:18:14;;;;;;;7.27;6.67;;;17.50;99.90;;;;;;3587834;39;20406;-72
2021/05/14 09:20:44;;;;;;;9.30;8.30;;;17.80;99.90;;;;;;3586537;39;21115;-74
2021/05/14 09:23:16;;;;;;;8.17;7.57;;;18.80;99.90;;;;;;3598268;39;20825;-73
2021/05/14 09:26:03;;;;;;;8.43;7.50;;;19.20;99.90;;;;;;3584698;39;20406;-73
2021/05/14 09:28:35;;;;;;;9.20;8.50;;;17.80;99.90;;;;;;3597164;39;20913;-72
2021/05/14 09:31:11;;;;;;;10.50;9.60;;;20.40;99.90;;;;;;3596840;39;20583;-72
2021/05/14 09:33:38;;;;;;;9.23;8.43;;;18.20;99.90;;;;;;3588810;39;21180;-73
2021/05/14 09:36:09;;;;;;;6.60;6.00;;;19.80;99.90;;;;;;3602037;39;20571;-73
2021/05/14 09:38:54;;;;;;;6.27;5.67;;;19.90;99.90;;;;;;3586863;39;20407;-73
2021/05/14 09:41:39;;;;;;;5.97;5.57;;;19.70;99.80;;;;;;3598977;39;20417;-73
2021/05/14 09:44:04;;;;;;;5.57;5.17;;;21.20;98.00;;;;;;3588711;39;20551;-73
2021/05/14 09:46:39;;;;;;;7.00;6.07;;;20.00;97.90;;;;;;3585470;39;20503;-73
2021/05/14 09:49:20;;;;;;;5.67;5.13;;;19.50;97.90;;;;;;3589341;39;20227;-73
2021/05/14 09:51:49;;;;;;;6.10;5.70;;;19.90;96.90;;;;;;3603097;39;20402;-73
2021/05/14 09:54:24;;;;;;;5.40;5.00;;;19.60;96.70;;;;;;3596605;39;20732;-73
2021/05/14 09:57:07;;;;;;;5.20;4.80;;;20.30;96.50;;;;;;3587353;39;20407;-73
2021/05/14 09:59:33;;;;;;;5.20;4.80;;;21.20;95.00;;;;;;3586049;39;20455;-72
2021/05/14 10:01:59;;;;;;;5.23;4.93;;;21.20;94.70;;;;;;3587940;39;20470;-73
2021/05/14 10:04:28;;;;;;;6.80;6.20;;;20.70;95.80;;;;;;3587094;39;20232;-73
2021/05/14 10:06:57;;;;;;;6.17;5.57;;;20.50;95.30;;;;;;3588854;39;20479;-73
2021/05/14 10:09:25;;;;;;;7.07;6.40;;;20.80;93.40;;;;;;3597057;39;20425;-73
2021/05/14 10:11:52;;;;;;;9.83;6.33;;;20.90;95.90;;;;;;3599532;39;20402;-72
2021/05/14 10:14:18;;;;;;;6.67;6.00;;;21.50;95.40;;;;;;3596722;39;20469;-73
2021/05/14 10:16:44;;;;;;;8.67;7.87;;;21.00;95.70;;;;;;3588959;39;20446;-73
2021/05/14 10:19:10;;;;;;;6.80;6.30;;;19.80;96.00;;;;;;3590228;39;20308;-73
2021/05/14 10:21:37;;;;;;;5.30;4.80;;;20.90;94.60;;;;;;3587561;39;20405;-73
2021/05/14 10:24:03;;;;;;;4.23;3.47;;;20.70;94.10;;;;;;3596841;39;20496;-73
2021/05/14 10:26:39;;;;;;;4.17;3.83;;;19.10;94.00;;;;;;3600482;39;20431;-73
2021/05/14 10:29:13;;;;;;;7.00;6.37;;;18.60;93.80;;;;;;3598119;39;20418;-73
2021/05/14 10:31:46;;;;;;;5.40;5.00;;;19.30;95.70;;;;;;3597788;39;20535;-73
2021/05/14 10:34:16;;;;;;;4.27;3.83;;;20.10;94.20;;;;;;3598305;39;20413;-73
2021/05/14 10:36:48;;;;;;;6.63;6.13;;;19.80;93.30;;;;;;3602588;39;20912;-73
2021/05/14 10:39:32;;;;;;;6.80;6.40;;;21.10;93.50;;;;;;3579590;39;20418;-73
2021/05/14 10:42:13;;;;;;;5.93;5.53;;;22.00;93.20;;;;;;3596973;39;21948;-73
2021/05/14 10:44:51;;;;;;;7.10;6.40;;;21.10;93.80;;;;;;3597281;39;20467;-73
2021/05/14 10:47:26;;;;;;;6.10;5.50;;;22.60;91.60;;;;;;3596807;39;20410;-73
2021/05/14 10:50:04;;;;;;;5.83;5.33;;;20.30;94.40;;;;;;3588395;39;20457;-72
2021/05/14 10:52:32;;;;;;;5.07;4.00;;;21.20;93.20;;;;;;3590200;39;20466;-72
2021/05/14 10:54:58;;;;;;;5.13;4.73;;;19.20;93.70;;;;;;3601153;39;20430;-72
2021/05/14 10:57:42;;;;;;;4.73;4.20;;;19.20;93.90;;;;;;3599288;39;20434;-73
2021/05/14 11:00:22;;;;;;;5.40;5.00;;;17.60;94.20;;;;;;3596170;39;20360;-73
2021/05/14 11:03:13;;;;;;;3.93;3.73;;;20.40;93.40;;;;;;3591958;39;20414;-73
2021/05/14 11:05:43;;;;;;;8.40;5.00;;;18.60;93.20;;;;;;3590256;39;20434;-72
2021/05/14 11:08:11;;;;;;;6.73;4.37;;;20.30;93.40;;;;;;3574275;39;20524;-73
2021/05/14 11:10:38;;;;;;;5.87;4.33;;;20.10;91.60;;;;;;3591233;39;20463;-73
2021/05/14 11:13:38;;;;;;;7.03;5.67;;;20.10;92.20;;;;;;3589848;39;21176;-73
2021/05/14 11:16:41;;;;;;;3.60;3.40;;;20.80;93.50;;;;;;3571165;39;20443;-73
2021/05/14 11:19:16;;;;;;;6.00;5.50;;;19.00;92.90;;;;;;3591979;39;20411;-73
2021/05/14 11:22:01;;;;;;;5.93;5.47;;;20.70;93.60;;;;;;3579171;39;20454;-73
2021/05/14 11:24:48;;;;;;;11.33;6.20;;;19.80;94.80;;;;;;3582115;39;20684;-73
2021/05/14 11:27:20;;;;;;;5.70;5.30;;;21.10;91.60;;;;;;3572961;39;20774;-74
2021/05/14 11:29:56;;;;;;;6.30;5.90;;;20.60;91.10;;;;;;3579469;39;20415;-74
2021/05/14 11:32:33;;;;;;;5.67;5.17;;;21.40;92.30;;;;;;3585084;39;20457;-74
2021/05/14 11:35:11;;;;;;;5.83;5.33;;;21.00;90.70;;;;;;3587586;39;20989;-74
2021/05/14 11:37:41;;;;;;;5.97;5.43;;;20.40;91.30;;;;;;3578528;39;20415;-74
2021/05/14 11:40:10;;;;;;;6.30;5.20;;;20.40;91.70;;;;;;3585020;39;20411;-75
2021/05/14 11:42:45;;;;;;;7.37;6.80;;;20.50;92.10;;;;;;3593745;39;20765;-74
2021/05/14 11:45:40;;;;;;;6.47;5.97;;;21.00;91.80;;;;;;3584137;39;20889;-74
2021/05/14 11:48:23;;;;;;;6.43;5.73;;;20.80;91.80;;;;;;3563162;39;20468;-75
2021/05/14 11:50:52;;;;;;;6.80;6.30;;;21.30;91.40;;;;;;3566443;39;20486;-74
2021/05/14 11:53:19;;;;;;;6.70;6.10;;;22.00;90.30;;;;;;3586822;39;20410;-74
2021/05/14 11:55:47;;;;;;;5.67;4.30;;;22.40;90.70;;;;;;3570981;39;20407;-74
2021/05/14 11:58:13;;;;;;;10.10;6.10;;;21.70;91.10;;;;;;3585597;39;20709;-74
2021/05/14 12:00:44;;;;;;;6.30;5.80;;;21.00;92.00;;;;;;3583083;39;20522;-74
2021/05/14 12:03:14;;;;;;;6.83;6.33;;;20.60;92.20;;;;;;3587310;39;20548;-74
2021/05/14 12:05:47;;;;;;;7.53;6.90;;;20.20;92.60;;;;;;3580341;39;20887;-74
2021/05/14 12:08:17;;;;;;;5.50;5.07;;;20.90;93.50;;;;;;3592599;39;20409;-74
2021/05/14 12:11:10;;;;;;;6.23;5.83;;;19.70;93.50;;;;;;3600949;39;20489;-74
2021/05/14 12:13:41;;;;;;;7.50;6.40;;;23.30;90.80;;;;;;3584082;39;20511;-74
2021/05/14 12:16:12;;;;;;;7.33;5.40;;;24.00;90.30;;;;;;3597522;39;20425;-74
2021/05/14 12:18:43;;;;;;;7.10;6.47;;;20.40;92.00;;;;;;3589303;39;21188;-74
2021/05/14 12:21:20;;;;;;;6.20;5.70;;;19.70;93.70;;;;;;3596180;39;20888;-74
2021/05/14 12:23:46;;;;;;;10.50;6.27;;;19.90;92.70;;;;;;3594767;39;20489;-74
2021/05/14 12:26:11;;;;;;;7.37;5.60;;;18.90;92.00;;;;;;3586978;39;20463;-74
2021/05/14 12:28:46;;;;;;;6.67;5.57;;;18.70;93.60;;;;;;3590101;39;20494;-74
2021/05/14 12:31:13;;;;;;;5.93;5.43;;;18.60;94.60;;;;;;3577377;39;20236;-74
2021/05/14 12:33:53;;;;;;;7.33;6.70;;;19.00;93.70;;;;;;3598349;39;20460;-74
2021/05/14 12:36:29;;;;;;;7.47;6.73;;;18.70;94.00;;;;;;3601054;39;20438;-74
2021/05/14 12:39:16;;;;;;;7.00;6.37;;;18.60;93.50;;;;;;3589687;39;20419;-74
2021/05/14 12:41:48;;;;;;;6.30;5.80;;;18.90;93.50;;;;;;3587933;39;20418;-73